Time;durP1;ratioP1;P1;durP2;ratioP2;P2;SDS_P1;SDS_P2;PMS_P1;PMS_P2;Temp;Humidity;BMP_temperature;BMP_pressure;BME280_temperature;BME280_humidity;BME280_pressure;Samples;Min_cycle;Max_cycle;Signal;HPM_P1;HPM_P2
2023/05/07 00:02:11;;;;;;;1.48;1.48;;;;;;;;;;4993032;28;20654;-82
2023/05/07 00:04:39;;;;;;;2.05;1.65;;;;;;;;;;4975658;28;20043;-83
2023/05/07 00:07:06;;;;;;;2.00;1.90;;;;;;;;;;4995433;28;20117;-84
2023/05/07 00:09:34;;;;;;;1.80;1.70;;;;;;;;;;4986870;28;20082;-82
2023/05/07 00:12:02;;;;;;;1.83;1.73;;;;;;;;;;4969934;28;20049;-82
2023/05/07 00:14:29;;;;;;;1.70;1.60;;;;;;;;;;4983538;28;20077;-82
2023/05/07 00:16:57;;;;;;;2.00;1.90;;;;;;;;;;4987210;28;20371;-83
2023/05/07 00:19:24;;;;;;;1.90;1.80;;;;;;;;;;4983926;28;20129;-83
2023/05/07 00:21:53;;;;;;;1.80;1.70;;;;;;;;;;4991074;28;20066;-82
2023/05/07 00:24:21;;;;;;;1.80;1.70;;;;;;;;;;5005624;28;20073;-83
2023/05/07 00:26:48;;;;;;;2.13;2.03;;;;;;;;;;4995552;28;20114;-84
2023/05/07 00:29:16;;;;;;;2.22;2.03;;;;;;;;;;4976127;28;20137;-83
2023/05/07 00:31:43;;;;;;;2.10;1.80;;;;;;;;;;4981711;28;20054;-83
2023/05/07 00:34:10;;;;;;;2.30;2.10;;;;;;;;;;4989355;28;20069;-83
2023/05/07 00:36:38;;;;;;;1.92;1.83;;;;;;;;;;4967492;28;20142;-83
2023/05/07 00:39:06;;;;;;;2.08;1.98;;;;;;;;;;4970930;28;20050;-82
2023/05/07 00:41:34;;;;;;;1.70;1.60;;;;;;;;;;4965923;28;20059;-82
2023/05/07 00:44:02;;;;;;;2.22;2.13;;;;;;;;;;4959871;28;20501;-83
2023/05/07 00:46:30;;;;;;;1.92;1.90;;;;;;;;;;4990279;28;20060;-82
2023/05/07 00:48:58;;;;;;;2.13;2.03;;;;;;;;;;4991987;28;20066;-83
2023/05/07 00:51:27;;;;;;;1.92;1.83;;;;;;;;;;4970897;28;20046;-82
2023/05/07 00:53:54;;;;;;;1.85;1.75;;;;;;;;;;4985895;28;20054;-82
2023/05/07 00:56:22;;;;;;;1.83;1.73;;;;;;;;;;4965899;28;20042;-82
2023/05/07 00:58:50;;;;;;;1.80;1.70;;;;;;;;;;4984771;28;20038;-83
2023/05/07 01:01:17;;;;;;;1.90;1.80;;;;;;;;;;4985964;28;20485;-82
2023/05/07 01:03:45;;;;;;;2.38;2.17;;;;;;;;;;4982955;28;20061;-84
2023/05/07 01:06:16;;;;;;;2.30;2.20;;;;;;;;;;4996442;28;20394;-83
2023/05/07 01:08:45;;;;;;;2.55;2.35;;;;;;;;;;4964107;28;20089;-83
2023/05/07 01:11:12;;;;;;;1.83;1.73;;;;;;;;;;4988556;28;20477;-83
2023/05/07 01:13:41;;;;;;;3.42;2.38;;;;;;;;;;4970103;28;20049;-82
2023/05/07 01:16:09;;;;;;;2.30;2.10;;;;;;;;;;4985908;28;20441;-82
2023/05/07 01:18:37;;;;;;;2.20;2.10;;;;;;;;;;4962530;28;20054;-84
2023/05/07 01:21:05;;;;;;;2.50;2.30;;;;;;;;;;4967119;28;20381;-83
2023/05/07 01:23:35;;;;;;;2.60;2.50;;;;;;;;;;4963231;28;20043;-84
2023/05/07 01:26:02;;;;;;;2.58;2.47;;;;;;;;;;4990673;28;20039;-83
2023/05/07 01:28:32;;;;;;;2.40;2.30;;;;;;;;;;4968517;28;20070;-83
2023/05/07 01:31:03;;;;;;;2.53;2.33;;;;;;;;;;4982066;28;20057;-82
2023/05/07 01:33:33;;;;;;;2.15;2.05;;;;;;;;;;4968759;28;20069;-82
2023/05/07 01:36:03;;;;;;;2.55;2.42;;;;;;;;;;4966184;28;20046;-82
2023/05/07 01:38:31;;;;;;;4.03;2.38;;;;;;;;;;4973299;28;20057;-83
2023/05/07 01:40:58;;;;;;;2.25;2.15;;;;;;;;;;4972245;28;20053;-84
2023/05/07 01:43:26;;;;;;;2.00;1.90;;;;;;;;;;4965545;28;20091;-83
2023/05/07 01:45:53;;;;;;;2.20;2.10;;;;;;;;;;4995149;28;20394;-83
2023/05/07 01:48:21;;;;;;;2.13;1.98;;;;;;;;;;4969793;28;20081;-82
2023/05/07 01:50:49;;;;;;;2.42;2.22;;;;;;;;;;4987161;28;20061;-83
2023/05/07 01:53:16;;;;;;;1.80;1.70;;;;;;;;;;4969201;28;20042;-82
2023/05/07 01:55:45;;;;;;;2.15;2.05;;;;;;;;;;4970728;28;20504;-82
2023/05/07 01:58:12;;;;;;;2.03;1.92;;;;;;;;;;4972293;28;20046;-82
2023/05/07 02:00:40;;;;;;;3.60;1.90;;;;;;;;;;4971532;23;20073;-86
2023/05/07 02:03:08;;;;;;;2.63;2.35;;;;;;;;;;4984821;28;20058;-86
2023/05/07 02:05:53;;;;;;;2.17;2.08;;;;;;;;;;4970526;28;20049;-86
2023/05/07 02:08:31;;;;;;;1.90;1.80;;;;;;;;;;4991070;28;20030;-86
2023/05/07 02:10:59;;;;;;;2.00;1.90;;;;;;;;;;4966920;28;20046;-85
2023/05/07 02:13:30;;;;;;;1.90;1.80;;;;;;;;;;4967482;28;20097;-86
2023/05/07 02:15:58;;;;;;;2.55;2.35;;;;;;;;;;4978713;28;20701;-86
2023/05/07 02:18:27;;;;;;;2.38;2.17;;;;;;;;;;4968735;28;20129;-85
2023/05/07 02:20:54;;;;;;;2.53;2.33;;;;;;;;;;4968942;28;20061;-86
2023/05/07 02:23:22;;;;;;;2.35;2.25;;;;;;;;;;4963930;28;20078;-87
2023/05/07 02:25:49;;;;;;;4.10;1.88;;;;;;;;;;4965090;28;20042;-86
2023/05/07 02:28:17;;;;;;;2.10;2.00;;;;;;;;;;4983432;28;20038;-86
2023/05/07 02:31:06;;;;;;;1.90;1.80;;;;;;;;;;4966947;28;20496;-86
2023/05/07 02:33:35;;;;;;;1.98;1.83;;;;;;;;;;4967955;28;20050;-86
2023/05/07 02:36:08;;;;;;;2.10;2.00;;;;;;;;;;4971176;28;20148;-86
2023/05/07 02:38:38;;;;;;;2.25;2.15;;;;;;;;;;4970150;28;20061;-85
2023/05/07 02:41:06;;;;;;;2.00;1.90;;;;;;;;;;4987345;28;20421;-85
2023/05/07 02:43:33;;;;;;;1.77;1.67;;;;;;;;;;4969320;28;20042;-86
2023/05/07 02:46:01;;;;;;;2.55;1.85;;;;;;;;;;4968582;28;20528;-85
2023/05/07 02:48:29;;;;;;;1.95;1.60;;;;;;;;;;4966673;28;20062;-86
2023/05/07 02:50:57;;;;;;;1.90;1.80;;;;;;;;;;4965456;28;20451;-85
2023/05/07 02:53:27;;;;;;;1.60;1.60;;;;;;;;;;4962372;28;20420;-85
2023/05/07 02:55:56;;;;;;;1.50;1.50;;;;;;;;;;4969222;28;20054;-86
2023/05/07 02:58:23;;;;;;;1.83;1.73;;;;;;;;;;4986020;28;20496;-85
2023/05/07 03:00:51;;;;;;;1.60;1.50;;;;;;;;;;4971993;28;20050;-85
2023/05/07 03:03:33;;;;;;;1.73;1.63;;;;;;;;;;4966855;28;20419;-86
2023/05/07 03:06:00;;;;;;;1.70;1.60;;;;;;;;;;4970112;28;20066;-88
2023/05/07 03:08:27;;;;;;;1.58;1.48;;;;;;;;;;4969648;28;20050;-87
2023/05/07 03:10:55;;;;;;;1.58;1.48;;;;;;;;;;4982674;28;20046;-85
2023/05/07 03:13:23;;;;;;;1.80;1.70;;;;;;;;;;4963378;28;20046;-86
2023/05/07 03:15:50;;;;;;;1.83;1.73;;;;;;;;;;4965811;28;20049;-86
2023/05/07 03:18:21;;;;;;;1.67;1.58;;;;;;;;;;4968356;28;20046;-86
2023/05/07 03:20:49;;;;;;;1.98;1.80;;;;;;;;;;4977778;28;20129;-85
2023/05/07 03:23:18;;;;;;;5.13;1.80;;;;;;;;;;4981435;28;20038;-86
2023/05/07 03:25:45;;;;;;;1.92;1.83;;;;;;;;;;4998786;28;20100;-86
2023/05/07 03:28:12;;;;;;;2.20;2.10;;;;;;;;;;4972316;28;20592;-87
2023/05/07 03:30:48;;;;;;;2.08;1.92;;;;;;;;;;4966514;28;20053;-86
2023/05/07 03:33:16;;;;;;;2.30;2.13;;;;;;;;;;4969118;28;20523;-86
2023/05/07 03:35:43;;;;;;;2.17;2.08;;;;;;;;;;4970982;28;20072;-86
2023/05/07 03:38:14;;;;;;;1.73;1.70;;;;;;;;;;4973220;28;20054;-86
2023/05/07 03:40:42;;;;;;;1.55;1.50;;;;;;;;;;4969835;28;20376;-86
2023/05/07 03:43:11;;;;;;;1.73;1.63;;;;;;;;;;4990755;28;20058;-86
2023/05/07 03:45:44;;;;;;;1.80;1.70;;;;;;;;;;4971740;28;20051;-86
2023/05/07 03:48:25;;;;;;;1.60;1.50;;;;;;;;;;4971267;28;20617;-85
2023/05/07 03:50:56;;;;;;;1.70;1.60;;;;;;;;;;4982544;28;20051;-86
2023/05/07 03:53:32;;;;;;;2.20;2.10;;;;;;;;;;4966875;28;20042;-85
2023/05/07 03:56:00;;;;;;;1.80;1.70;;;;;;;;;;4967306;28;20479;-85
2023/05/07 03:58:30;;;;;;;1.77;1.67;;;;;;;;;;4971180;28;20133;-85
2023/05/07 04:01:01;;;;;;;1.70;1.60;;;;;;;;;;4968960;28;20046;-86
2023/05/07 04:03:28;;;;;;;1.90;1.80;;;;;;;;;;4971637;28;20050;-85
2023/05/07 04:05:58;;;;;;;1.73;1.67;;;;;;;;;;4974086;28;20060;-87
2023/05/07 04:08:26;;;;;;;1.73;1.63;;;;;;;;;;4972145;28;23068;-86
2023/05/07 04:10:55;;;;;;;1.60;1.60;;;;;;;;;;4978014;28;20035;-85
2023/05/07 04:13:23;;;;;;;1.52;1.52;;;;;;;;;;4963653;28;20046;-86
2023/05/07 04:15:52;;;;;;;1.55;1.55;;;;;;;;;;4968563;28;20104;-86
2023/05/07 04:18:25;;;;;;;2.00;1.90;;;;;;;;;;4970365;28;20050;-86
2023/05/07 04:20:52;;;;;;;1.98;1.88;;;;;;;;;;4987789;28;20132;-86
2023/05/07 04:23:21;;;;;;;1.85;1.75;;;;;;;;;;4987333;28;20054;-87
2023/05/07 04:25:48;;;;;;;2.25;2.05;;;;;;;;;;4970573;28;20053;-86
2023/05/07 04:28:30;;;;;;;1.77;1.67;;;;;;;;;;4970655;28;20046;-86
2023/05/07 04:30:58;;;;;;;1.83;1.75;;;;;;;;;;4970606;28;20042;-86
2023/05/07 04:33:27;;;;;;;1.75;1.65;;;;;;;;;;4965771;28;20042;-86
2023/05/07 04:35:56;;;;;;;1.80;1.70;;;;;;;;;;4969953;28;21561;-87
2023/05/07 04:38:24;;;;;;;1.65;1.55;;;;;;;;;;4955278;28;20053;-84
2023/05/07 04:40:53;;;;;;;1.70;1.60;;;;;;;;;;4986518;28;20150;-84
2023/05/07 04:43:24;;;;;;;1.90;1.80;;;;;;;;;;4986016;28;20075;-86
2023/05/07 04:45:52;;;;;;;1.38;1.38;;;;;;;;;;4985766;28;20047;-85
2023/05/07 04:48:22;;;;;;;1.60;1.50;;;;;;;;;;4986529;28;20134;-83
2023/05/07 04:50:51;;;;;;;2.30;1.85;;;;;;;;;;4976482;28;20057;-84
2023/05/07 04:53:20;;;;;;;2.13;2.03;;;;;;;;;;4994920;28;20026;-82
2023/05/07 04:55:48;;;;;;;2.10;2.00;;;;;;;;;;4990942;28;20045;-83
2023/05/07 04:58:16;;;;;;;1.88;1.77;;;;;;;;;;4991166;28;20042;-83
2023/05/07 05:00:47;;;;;;;1.83;1.73;;;;;;;;;;4988696;28;20097;-83
2023/05/07 05:03:14;;;;;;;1.85;1.85;;;;;;;;;;5013060;28;20062;-85
2023/05/07 05:05:42;;;;;;;4.30;2.40;;;;;;;;;;4971603;28;20093;-85
2023/05/07 05:08:09;;;;;;;2.30;2.20;;;;;;;;;;4974278;28;20064;-85
2023/05/07 05:10:39;;;;;;;2.00;1.90;;;;;;;;;;4968337;28;20472;-86
2023/05/07 05:13:06;;;;;;;2.10;2.00;;;;;;;;;;4970689;28;20427;-85
2023/05/07 05:15:35;;;;;;;1.73;1.70;;;;;;;;;;4968834;28;20050;-86
2023/05/07 05:18:03;;;;;;;1.80;1.70;;;;;;;;;;4969571;28;20050;-85
2023/05/07 05:20:30;;;;;;;2.00;1.90;;;;;;;;;;4969169;28;20133;-88
2023/05/07 05:22:58;;;;;;;2.08;1.90;;;;;;;;;;4972133;28;20050;-87
2023/05/07 05:25:28;;;;;;;2.00;1.90;;;;;;;;;;4988700;28;20110;-87
2023/05/07 05:27:57;;;;;;;2.78;1.83;;;;;;;;;;4971966;28;21917;-87
2023/05/07 05:30:33;;;;;;;1.95;1.85;;;;;;;;;;4970684;28;20419;-88
2023/05/07 05:33:04;;;;;;;2.10;2.00;;;;;;;;;;4963347;28;20588;-88
2023/05/07 05:35:32;;;;;;;1.92;1.83;;;;;;;;;;4959696;28;20061;-88
2023/05/07 05:38:03;;;;;;;2.10;2.00;;;;;;;;;;4968385;28;20042;-89
2023/05/07 05:40:33;;;;;;;1.80;1.70;;;;;;;;;;4981380;28;20046;-89
2023/05/07 05:43:01;;;;;;;1.75;1.73;;;;;;;;;;4981298;28;20058;-89
2023/05/07 05:45:30;;;;;;;1.80;1.70;;;;;;;;;;4979055;28;20810;-89
2023/05/07 05:47:58;;;;;;;2.10;2.00;;;;;;;;;;4964444;28;20056;-89
2023/05/07 05:50:26;;;;;;;1.90;1.80;;;;;;;;;;4985867;28;20050;-89
2023/05/07 05:52:55;;;;;;;1.85;1.80;;;;;;;;;;4948116;28;20047;-88
2023/05/07 05:55:25;;;;;;;1.88;1.77;;;;;;;;;;4966416;28;20129;-88
2023/05/07 05:57:53;;;;;;;1.90;1.80;;;;;;;;;;4996094;23;20129;-88
2023/05/07 06:00:22;;;;;;;2.00;1.90;;;;;;;;;;5023130;28;20219;-89
2023/05/07 06:03:01;;;;;;;2.13;2.03;;;;;;;;;;5021263;28;20043;-89
2023/05/07 06:05:29;;;;;;;2.10;2.00;;;;;;;;;;5023761;28;20053;-89
2023/05/07 06:07:58;;;;;;;2.35;2.25;;;;;;;;;;5036226;28;20045;-89
2023/05/07 06:10:30;;;;;;;;;;;;;;;;;;5008793;28;20069;-89
2023/05/07 06:13:01;;;;;;;2.00;1.90;;;;;;;;;;5015457;28;19927;-89
2023/05/07 06:15:29;;;;;;;2.25;2.15;;;;;;;;;;5024368;28;20042;-89
2023/05/07 06:18:02;;;;;;;2.40;2.20;;;;;;;;;;5005250;28;20522;-89
2023/05/07 06:20:32;;;;;;;2.30;2.10;;;;;;;;;;5023489;28;23035;-90
2023/05/07 06:23:30;;;;;;;1.80;1.70;;;;;;;;;;5007409;28;20115;-89
2023/05/07 06:26:02;;;;;;;2.10;2.00;;;;;;;;;;5011833;28;20041;-90
2023/05/07 06:29:00;;;;;;;4.47;1.98;;;;;;;;;;5025494;28;20289;-89
2023/05/07 06:31:31;;;;;;;2.10;1.90;;;;;;;;;;5005397;28;20033;-91
2023/05/07 06:34:06;;;;;;;2.30;2.20;;;;;;;;;;5004694;28;20160;-89
2023/05/07 06:36:38;;;;;;;2.55;2.20;;;;;;;;;;5005969;28;20050;-89
2023/05/07 06:39:21;;;;;;;2.22;2.13;;;;;;;;;;5008677;28;20076;-89
2023/05/07 06:42:04;;;;;;;1.67;1.67;;;;;;;;;;5007466;28;20046;-89
2023/05/07 06:45:09;;;;;;;2.42;2.30;;;;;;;;;;5008921;28;20251;-90
2023/05/07 06:47:45;;;;;;;1.98;1.88;;;;;;;;;;5004311;28;20411;-91
2023/05/07 06:50:18;;;;;;;2.00;1.90;;;;;;;;;;5003214;28;20045;-91
2023/05/07 06:53:28;;;;;;;2.00;1.90;;;;;;;;;;4998749;28;20142;-90
2023/05/07 06:56:57;;;;;;;2.15;1.95;;;;;;;;;;5019111;28;20033;-92
2023/05/07 07:00:45;;;;;;;2.50;2.30;;;;;;;;;;5004926;28;20052;-91
2023/05/07 07:03:22;;;;;;;2.95;2.75;;;;;;;;;;5009825;28;20033;-91
2023/05/07 07:06:25;;;;;;;2.80;2.63;;;;;;;;;;4992222;28;20040;-92
2023/05/07 07:09:51;;;;;;;;;;;;;;;;;;;;;
2023/05/07 07:18:07;;;;;;;2.60;2.50;;;;;;;;;;4928664;28;20098;-90
2023/05/07 07:21:05;;;;;;;2.40;2.20;;;;;;;;;;4929027;29;20126;-89
2023/05/07 07:23:53;;;;;;;2.72;2.53;;;;;;;;;;4938753;29;20225;-92
2023/05/07 07:27:28;;;;;;;2.58;2.38;;;;;;;;;;4941038;28;20526;-90
2023/05/07 07:29:59;;;;;;;2.50;2.40;;;;;;;;;;4944197;28;20047;-88
2023/05/07 07:32:33;;;;;;;2.33;2.22;;;;;;;;;;4925838;29;20044;-90
2023/05/07 07:35:03;;;;;;;2.83;2.63;;;;;;;;;;4936038;29;20047;-87
2023/05/07 07:37:33;;;;;;;2.88;2.67;;;;;;;;;;4933989;28;20572;-90
2023/05/07 07:40:22;;;;;;;3.33;2.63;;;;;;;;;;4915505;29;20055;-89
2023/05/07 07:43:01;;;;;;;2.75;2.55;;;;;;;;;;4936246;29;20052;-89
2023/05/07 07:46:30;;;;;;;2.30;2.20;;;;;;;;;;4884476;29;20063;-90
2023/05/07 07:54:00;;;;;;;;;;;;;;;;;;;;;
2023/05/07 07:58:03;;;;;;;2.10;2.00;;;;;;;;;;4989756;28;20041;-87
2023/05/07 08:05:51;;;;;;;2.17;2.03;;;;;;;;;;4965038;28;20079;-87
2023/05/07 08:09:03;;;;;;;2.60;2.40;;;;;;;;;;4966055;23;20046;-75
2023/05/07 08:11:31;;;;;;;2.10;2.00;;;;;;;;;;4956417;28;20518;-77
2023/05/07 08:13:59;;;;;;;2.20;2.10;;;;;;;;;;4963922;28;20428;-77
2023/05/07 08:16:28;;;;;;;1.90;1.80;;;;;;;;;;4978029;28;20058;-75
2023/05/07 08:18:58;;;;;;;1.83;1.73;;;;;;;;;;4960927;28;20061;-76
2023/05/07 08:21:26;;;;;;;2.03;1.92;;;;;;;;;;4961075;28;20045;-78
2023/05/07 08:23:54;;;;;;;2.20;2.10;;;;;;;;;;4968762;28;20072;-77
2023/05/07 08:26:21;;;;;;;2.08;1.95;;;;;;;;;;4981013;28;20042;-78
2023/05/07 08:28:49;;;;;;;1.58;1.50;;;;;;;;;;4988500;28;20640;-79
2023/05/07 08:31:16;;;;;;;2.10;2.00;;;;;;;;;;4974064;28;20052;-79
2023/05/07 08:34:11;;;;;;;1.95;1.85;;;;;;;;;;5010770;23;20141;-85
2023/05/07 08:38:04;;;;;;;1.90;1.80;;;;;;;;;;4966865;28;20150;-85
2023/05/07 08:45:36;;;;;;;1.73;1.63;;;;;;;;;;4941920;28;20070;-86
2023/05/07 08:48:25;;;;;;;2.03;1.90;;;;;;;;;;4959669;28;20467;-85
2023/05/07 08:55:20;;;;;;;3.92;2.20;;;;;;;;;;4926261;28;20055;-84
2023/05/07 08:57:48;;;;;;;1.60;1.48;;;;;;;;;;4907350;29;20162;-85
2023/05/07 09:00:17;;;;;;;1.75;1.65;;;;;;;;;;4929305;29;20047;-84
2023/05/07 09:02:49;;;;;;;2.15;1.98;;;;;;;;;;4920549;29;20055;-84
2023/05/07 09:05:17;;;;;;;1.50;1.40;;;;;;;;;;4911458;29;20882;-84
2023/05/07 09:07:46;;;;;;;1.95;1.85;;;;;;;;;;4928003;28;20050;-84
2023/05/07 09:10:15;;;;;;;2.00;1.90;;;;;;;;;;4910286;29;20518;-84
2023/05/07 09:12:47;;;;;;;2.10;2.00;;;;;;;;;;4917739;29;20044;-84
2023/05/07 09:15:15;;;;;;;1.87;1.77;;;;;;;;;;4939350;29;20071;-85
2023/05/07 09:17:44;;;;;;;2.08;1.98;;;;;;;;;;4930266;28;20044;-84
2023/05/07 09:20:12;;;;;;;1.92;1.83;;;;;;;;;;4912210;29;20044;-83
2023/05/07 09:22:40;;;;;;;1.50;1.50;;;;;;;;;;4912548;29;20047;-83
2023/05/07 09:25:11;;;;;;;1.73;1.63;;;;;;;;;;4906236;29;20043;-83
2023/05/07 09:27:42;;;;;;;2.03;1.45;;;;;;;;;;4909210;29;20285;-84
2023/05/07 09:30:09;;;;;;;1.42;1.40;;;;;;;;;;4914813;29;20415;-84
2023/05/07 09:32:37;;;;;;;1.40;1.40;;;;;;;;;;4898194;29;20139;-83
2023/05/07 09:35:15;;;;;;;1.30;1.30;;;;;;;;;;4911962;29;20047;-84
2023/05/07 09:37:46;;;;;;;1.00;1.00;;;;;;;;;;4927026;29;20218;-85
2023/05/07 09:40:24;;;;;;;1.70;1.60;;;;;;;;;;4921072;29;20457;-84
2023/05/07 09:42:53;;;;;;;1.67;1.58;;;;;;;;;;4928110;29;20066;-84
2023/05/07 09:45:32;;;;;;;1.30;1.30;;;;;;;;;;4911660;29;20580;-84
2023/05/07 09:48:02;;;;;;;1.33;1.33;;;;;;;;;;4911991;29;20071;-84
2023/05/07 09:50:32;;;;;;;1.40;1.30;;;;;;;;;;4908792;29;20495;-84
2023/05/07 09:53:01;;;;;;;1.20;1.20;;;;;;;;;;4919286;29;20222;-84
2023/05/07 09:55:29;;;;;;;1.60;1.50;;;;;;;;;;4922212;29;20051;-85
2023/05/07 09:57:58;;;;;;;1.75;1.65;;;;;;;;;;4919051;29;20079;-85
2023/05/07 10:00:28;;;;;;;1.73;1.60;;;;;;;;;;4907617;29;20122;-86
2023/05/07 10:03:05;;;;;;;1.45;1.42;;;;;;;;;;4911177;29;20057;-84
2023/05/07 10:05:44;;;;;;;1.70;1.60;;;;;;;;;;4905324;29;20044;-84
2023/05/07 10:08:12;;;;;;;1.40;1.30;;;;;;;;;;4920090;29;20056;-82
2023/05/07 10:10:40;;;;;;;1.45;1.35;;;;;;;;;;4907689;29;20055;-83
2023/05/07 10:13:11;;;;;;;1.38;1.30;;;;;;;;;;4919086;29;20046;-84
2023/05/07 10:15:43;;;;;;;0.90;0.90;;;;;;;;;;4915440;29;20060;-84
2023/05/07 10:18:12;;;;;;;1.50;1.00;;;;;;;;;;4902932;29;20048;-85
2023/05/07 10:20:43;;;;;;;1.15;1.15;;;;;;;;;;4907781;29;20342;-84
2023/05/07 10:23:13;;;;;;;0.88;0.88;;;;;;;;;;4904087;29;20142;-84
2023/05/07 10:25:44;;;;;;;1.33;1.10;;;;;;;;;;4921942;29;20393;-84
2023/05/07 10:28:20;;;;;;;1.25;1.20;;;;;;;;;;4920919;29;20047;-83
2023/05/07 10:31:01;;;;;;;1.33;1.30;;;;;;;;;;4904506;29;20441;-84
2023/05/07 10:33:36;;;;;;;1.10;1.10;;;;;;;;;;4916691;29;20063;-84
2023/05/07 10:36:06;;;;;;;1.00;1.00;;;;;;;;;;4926572;29;20052;-83
2023/05/07 10:38:34;;;;;;;1.00;1.00;;;;;;;;;;4923298;29;20518;-84
2023/05/07 10:41:05;;;;;;;0.95;0.95;;;;;;;;;;4918595;29;20051;-84
2023/05/07 10:43:41;;;;;;;1.05;1.05;;;;;;;;;;4906311;29;20052;-83
2023/05/07 10:46:18;;;;;;;1.00;1.00;;;;;;;;;;4888527;29;20435;-84
2023/05/07 10:49:05;;;;;;;1.30;1.30;;;;;;;;;;4920529;29;20050;-83
2023/05/07 10:52:15;;;;;;;1.20;1.20;;;;;;;;;;4917585;28;20473;-83
2023/05/07 10:55:17;;;;;;;1.10;1.10;;;;;;;;;;4929766;29;20099;-84
2023/05/07 10:57:52;;;;;;;0.90;0.90;;;;;;;;;;4942902;28;20049;-83
2023/05/07 11:00:25;;;;;;;0.93;0.93;;;;;;;;;;4949272;28;20043;-83
2023/05/07 11:03:11;;;;;;;0.90;0.90;;;;;;;;;;4928970;28;20070;-82
2023/05/07 11:05:48;;;;;;;0.80;0.73;;;;;;;;;;4922203;28;20047;-82
2023/05/07 11:08:25;;;;;;;0.95;0.95;;;;;;;;;;4922810;28;20047;-81
2023/05/07 11:11:04;;;;;;;1.13;1.13;;;;;;;;;;4926834;29;20902;-82
2023/05/07 11:13:47;;;;;;;1.30;1.30;;;;;;;;;;4931431;28;20130;-82
2023/05/07 11:16:36;;;;;;;1.00;1.00;;;;;;;;;;4958991;28;20027;-81
2023/05/07 11:19:16;;;;;;;0.88;0.88;;;;;;;;;;4943624;28;20242;-83
2023/05/07 11:21:48;;;;;;;0.77;0.77;;;;;;;;;;4934553;28;20050;-82
2023/05/07 11:24:25;;;;;;;0.80;0.80;;;;;;;;;;4946000;28;20066;-83
2023/05/07 11:26:57;;;;;;;1.40;1.30;;;;;;;;;;4920943;29;20095;-81
2023/05/07 11:29:27;;;;;;;1.00;1.00;;;;;;;;;;4923659;29;20055;-83
2023/05/07 11:32:00;;;;;;;0.90;0.90;;;;;;;;;;4929234;28;20051;-82
2023/05/07 11:34:32;;;;;;;1.58;0.80;;;;;;;;;;4933057;28;20090;-84
2023/05/07 11:37:00;;;;;;;1.70;1.20;;;;;;;;;;4931688;28;20226;-85
2023/05/07 11:39:43;;;;;;;0.95;0.95;;;;;;;;;;4938699;28;20055;-83
2023/05/07 11:42:29;;;;;;;1.15;1.15;;;;;;;;;;4938644;28;20047;-81
2023/05/07 11:44:57;;;;;;;0.93;0.93;;;;;;;;;;4953077;28;20391;-84
2023/05/07 11:47:25;;;;;;;1.13;1.02;;;;;;;;;;4950753;28;20134;-83
2023/05/07 11:49:54;;;;;;;1.10;1.10;;;;;;;;;;4929092;28;20047;-84
2023/05/07 11:52:22;;;;;;;1.25;1.20;;;;;;;;;;4940004;28;20038;-83
2023/05/07 11:54:54;;;;;;;0.90;0.90;;;;;;;;;;4949780;28;20224;-83
2023/05/07 11:57:25;;;;;;;1.10;1.10;;;;;;;;;;4948528;28;20066;-84
2023/05/07 11:59:55;;;;;;;1.00;1.00;;;;;;;;;;4941697;28;20053;-83
2023/05/07 12:02:24;;;;;;;1.00;1.00;;;;;;;;;;4954989;28;20479;-85
2023/05/07 12:04:53;;;;;;;1.50;1.40;;;;;;;;;;4945969;28;21332;-82
2023/05/07 12:07:20;;;;;;;1.00;1.00;;;;;;;;;;4946018;28;20040;-85
2023/05/07 12:09:48;;;;;;;1.20;1.20;;;;;;;;;;4951494;28;20058;-83
2023/05/07 12:12:17;;;;;;;1.00;1.00;;;;;;;;;;4961822;28;20046;-83
2023/05/07 12:14:45;;;;;;;1.10;1.10;;;;;;;;;;4957208;28;20058;-84
2023/05/07 12:17:13;;;;;;;1.30;1.20;;;;;;;;;;4940609;28;20046;-85
2023/05/07 12:19:43;;;;;;;1.40;1.30;;;;;;;;;;4964804;28;20052;-83
2023/05/07 12:22:11;;;;;;;1.10;1.10;;;;;;;;;;4944052;28;20432;-84
2023/05/07 12:24:44;;;;;;;1.40;1.40;;;;;;;;;;4936044;28;20399;-83
2023/05/07 12:27:12;;;;;;;1.70;1.60;;;;;;;;;;4951861;28;20047;-84
2023/05/07 12:29:40;;;;;;;1.58;1.48;;;;;;;;;;4933365;28;20051;-84
2023/05/07 12:32:13;;;;;;;1.30;1.25;;;;;;;;;;4951288;28;20139;-85
2023/05/07 12:34:40;;;;;;;1.80;1.70;;;;;;;;;;4949854;28;20062;-83
2023/05/07 12:37:12;;;;;;;1.65;1.60;;;;;;;;;;4972531;28;20098;-84
2023/05/07 12:39:49;;;;;;;2.47;1.60;;;;;;;;;;4950248;28;20059;-83
2023/05/07 12:42:18;;;;;;;1.50;1.40;;;;;;;;;;4940324;28;20540;-86
2023/05/07 12:44:46;;;;;;;1.60;1.60;;;;;;;;;;4949076;28;20043;-84
2023/05/07 12:47:15;;;;;;;1.80;1.70;;;;;;;;;;4934264;28;20051;-85
2023/05/07 12:49:44;;;;;;;1.60;1.50;;;;;;;;;;4947108;28;20034;-84
2023/05/07 12:52:13;;;;;;;1.33;1.33;;;;;;;;;;4949397;28;20409;-83
2023/05/07 12:54:40;;;;;;;1.52;1.52;;;;;;;;;;4945099;28;20485;-83
2023/05/07 12:57:09;;;;;;;1.35;1.35;;;;;;;;;;4947892;28;20515;-83
2023/05/07 12:59:40;;;;;;;1.30;1.30;;;;;;;;;;4946401;28;20293;-84
2023/05/07 13:02:08;;;;;;;1.70;1.60;;;;;;;;;;4947642;28;20047;-85
2023/05/07 13:04:37;;;;;;;1.30;1.30;;;;;;;;;;4932411;28;20051;-84
2023/05/07 13:07:04;;;;;;;1.83;1.10;;;;;;;;;;4930941;28;20226;-85
2023/05/07 13:09:32;;;;;;;1.10;1.10;;;;;;;;;;4944639;28;20047;-83
2023/05/07 13:12:01;;;;;;;1.08;1.08;;;;;;;;;;4949312;28;20047;-83
2023/05/07 13:14:28;;;;;;;1.20;1.20;;;;;;;;;;4959115;28;20070;-83
2023/05/07 13:16:56;;;;;;;1.20;1.20;;;;;;;;;;4961801;28;20063;-84
2023/05/07 13:19:24;;;;;;;1.20;1.20;;;;;;;;;;4959355;28;20497;-83
2023/05/07 13:21:51;;;;;;;0.90;0.90;;;;;;;;;;4951826;28;20061;-84
2023/05/07 13:24:19;;;;;;;1.58;0.80;;;;;;;;;;4935637;29;20117;-84
2023/05/07 13:26:47;;;;;;;0.90;0.90;;;;;;;;;;4932644;28;20057;-84
2023/05/07 13:29:14;;;;;;;0.80;0.80;;;;;;;;;;4936785;28;20317;-84
2023/05/07 13:31:43;;;;;;;1.00;1.00;;;;;;;;;;4930243;28;20516;-85
2023/05/07 13:34:11;;;;;;;0.70;0.70;;;;;;;;;;4951403;28;20692;-84
2023/05/07 13:36:39;;;;;;;0.85;0.85;;;;;;;;;;4955059;28;20647;-83
2023/05/07 13:39:08;;;;;;;1.00;1.00;;;;;;;;;;4950397;28;20166;-84
2023/05/07 13:41:36;;;;;;;1.00;1.00;;;;;;;;;;4952674;28;20118;-85
2023/05/07 13:44:04;;;;;;;0.82;0.82;;;;;;;;;;4952927;28;20057;-84
2023/05/07 13:46:31;;;;;;;1.15;0.93;;;;;;;;;;4958322;28;20044;-84
2023/05/07 13:48:59;;;;;;;0.90;0.90;;;;;;;;;;4954023;28;20047;-83
2023/05/07 13:51:27;;;;;;;0.80;0.80;;;;;;;;;;4951572;28;20141;-84
2023/05/07 13:53:55;;;;;;;0.90;0.90;;;;;;;;;;4950350;28;20055;-84
2023/05/07 13:56:25;;;;;;;0.70;0.70;;;;;;;;;;4940604;28;20102;-85
2023/05/07 13:58:53;;;;;;;0.90;0.90;;;;;;;;;;4956974;28;20051;-84
2023/05/07 14:01:27;;;;;;;1.85;1.00;;;;;;;;;;4951317;28;20051;-83
2023/05/07 14:03:57;;;;;;;1.25;1.17;;;;;;;;;;4934657;28;20349;-85
2023/05/07 14:06:24;;;;;;;1.13;1.13;;;;;;;;;;4934132;29;20106;-84
2023/05/07 14:08:52;;;;;;;1.10;1.10;;;;;;;;;;4957178;28;20481;-83
2023/05/07 14:11:20;;;;;;;1.98;0.90;;;;;;;;;;4951966;28;20067;-85
2023/05/07 14:13:48;;;;;;;0.90;0.90;;;;;;;;;;4951441;28;20042;-84
2023/05/07 14:16:15;;;;;;;0.70;0.70;;;;;;;;;;4942293;28;20047;-83
2023/05/07 14:18:43;;;;;;;1.35;1.20;;;;;;;;;;4949581;28;20050;-87
2023/05/07 14:21:27;;;;;;;0.90;0.90;;;;;;;;;;4940317;29;20047;-83
2023/05/07 14:24:09;;;;;;;2.22;2.13;;;;;;;;;;4952215;28;20583;-83
2023/05/07 14:26:36;;;;;;;0.80;0.80;;;;;;;;;;4934862;28;20047;-84
2023/05/07 14:29:04;;;;;;;0.95;0.95;;;;;;;;;;4935219;28;20050;-83
2023/05/07 14:31:33;;;;;;;1.10;0.98;;;;;;;;;;4951819;28;20047;-87
2023/05/07 14:34:00;;;;;;;1.15;1.00;;;;;;;;;;4935479;28;20035;-84
2023/05/07 14:37:10;;;;;;;0.90;0.90;;;;;;;;;;5009068;23;20054;-88
2023/05/07 14:39:42;;;;;;;0.80;0.80;;;;;;;;;;4968854;28;20043;-84
2023/05/07 14:42:09;;;;;;;0.65;0.65;;;;;;;;;;4968331;28;20090;-86
2023/05/07 14:44:41;;;;;;;0.90;0.90;;;;;;;;;;4969899;28;20073;-88
2023/05/07 14:47:15;;;;;;;0.70;0.70;;;;;;;;;;4973116;28;20339;-86
2023/05/07 14:49:47;;;;;;;0.80;0.80;;;;;;;;;;4977148;28;20097;-88
2023/05/07 14:52:22;;;;;;;0.85;0.85;;;;;;;;;;4951906;28;20042;-87
2023/05/07 14:55:00;;;;;;;0.70;0.70;;;;;;;;;;4991006;28;20038;-87
2023/05/07 14:57:37;;;;;;;0.90;0.90;;;;;;;;;;4992268;28;20046;-82
2023/05/07 15:00:06;;;;;;;0.73;0.70;;;;;;;;;;4985169;28;20130;-88
2023/05/07 15:02:39;;;;;;;0.77;0.77;;;;;;;;;;4987625;28;20588;-87
2023/05/07 15:05:14;;;;;;;0.70;0.70;;;;;;;;;;4980909;28;20055;-87
2023/05/07 15:07:45;;;;;;;0.60;0.60;;;;;;;;;;4975218;28;20052;-91
2023/05/07 15:10:40;;;;;;;0.70;0.70;;;;;;;;;;4947861;28;20047;-88
2023/05/07 15:13:16;;;;;;;0.70;0.70;;;;;;;;;;4967559;28;20050;-85
2023/05/07 15:15:47;;;;;;;0.82;0.82;;;;;;;;;;4971373;28;20051;-86
2023/05/07 15:18:16;;;;;;;1.05;0.95;;;;;;;;;;4969541;28;20062;-89
2023/05/07 15:20:52;;;;;;;0.80;0.80;;;;;;;;;;4966793;28;20424;-89
2023/05/07 15:23:24;;;;;;;0.70;0.70;;;;;;;;;;4969631;28;20043;-90
2023/05/07 15:25:53;;;;;;;1.42;1.33;;;;;;;;;;4969135;28;20054;-87
2023/05/07 15:28:31;;;;;;;0.90;0.90;;;;;;;;;;4968515;28;20054;-87
2023/05/07 15:31:13;;;;;;;;;;;;;;;;;;4970366;28;20047;-88
2023/05/07 15:33:40;;;;;;;1.48;1.38;;;;;;;;;;4973745;28;20040;-88
2023/05/07 15:36:08;;;;;;;1.23;1.17;;;;;;;;;;4974416;28;20046;-85
2023/05/07 15:38:50;;;;;;;1.33;1.33;;;;;;;;;;4977079;28;20061;-85
2023/05/07 15:41:17;;;;;;;1.10;1.10;;;;;;;;;;4975545;28;20078;-86
2023/05/07 15:43:46;;;;;;;1.20;1.20;;;;;;;;;;4974349;28;20165;-86
2023/05/07 15:46:24;;;;;;;1.42;1.40;;;;;;;;;;4979073;28;20046;-86